createdAt,value
2017-08-01T00:00:09.876Z,7.93
2017-08-01T00:02:37.619Z,8.67
2017-08-01T00:05:05.157Z,6.20
2017-08-01T00:07:32.727Z,7.20
2017-08-01T00:10:00.273Z,6.10
2017-08-01T00:12:28.702Z,7.03
2017-08-01T00:14:56.311Z,5.73
2017-08-01T00:17:23.894Z,11.77
2017-08-01T00:19:51.657Z,7.63
2017-08-01T00:22:19.309Z,8.90
2017-08-01T00:24:46.933Z,7.97
2017-08-01T00:27:14.512Z,9.80
2017-08-01T00:29:42.114Z,9.20
2017-08-01T00:32:09.711Z,11.20
2017-08-01T00:34:37.263Z,12.60
2017-08-01T00:37:04.848Z,10.17
2017-08-01T00:39:32.455Z,11.63
2017-08-01T00:42:00.081Z,9.60
2017-08-01T00:44:28.262Z,9.23
2017-08-01T00:46:55.842Z,10.17
2017-08-01T00:49:23.438Z,9.13
2017-08-01T00:51:51.010Z,8.73
2017-08-01T00:54:18.586Z,9.00
2017-08-01T00:56:46.174Z,8.73
2017-08-01T00:59:13.714Z,9.43
2017-08-01T01:01:41.340Z,9.50
2017-08-01T01:04:08.906Z,9.80
2017-08-01T01:06:36.499Z,8.57
2017-08-01T01:09:04.122Z,10.67
2017-08-01T01:11:31.887Z,8.20
2017-08-01T01:13:59.506Z,7.90
2017-08-01T01:16:27.135Z,7.33
2017-08-01T01:18:54.707Z,6.90
2017-08-01T01:21:22.494Z,13.20
2017-08-01T01:23:50.115Z,6.43
2017-08-01T01:26:17.879Z,7.20
2017-08-01T01:28:45.441Z,6.90
2017-08-01T01:31:13.065Z,7.20
2017-08-01T01:33:40.846Z,6.97
2017-08-01T01:36:08.603Z,7.60
2017-08-01T01:38:36.205Z,7.60
2017-08-01T01:41:03.814Z,11.03
2017-08-01T01:43:31.422Z,6.20
2017-08-01T01:45:59.046Z,6.90
2017-08-01T01:48:26.602Z,7.90
2017-08-01T01:50:54.227Z,8.93
2017-08-01T01:53:22.117Z,6.87
2017-08-01T01:55:49.781Z,9.83
2017-08-01T01:58:18.173Z,7.53
2017-08-01T02:00:46.697Z,14.80
2017-08-01T02:03:14.637Z,8.53
2017-08-01T02:05:42.519Z,7.33
2017-08-01T02:08:10.153Z,8.60
2017-08-01T02:10:37.740Z,7.87
2017-08-01T02:13:05.341Z,7.33
2017-08-01T02:15:33.211Z,8.27
2017-08-01T02:18:00.999Z,7.67
2017-08-01T02:20:28.799Z,8.07
2017-08-01T02:22:57.195Z,12.10
2017-08-01T02:25:24.999Z,9.53
2017-08-01T02:27:52.643Z,8.03
2017-08-01T02:30:20.431Z,9.60
2017-08-01T02:32:48.005Z,11.83
2017-08-01T02:35:15.559Z,10.73
2017-08-01T02:37:43.175Z,11.90
2017-08-01T02:40:10.945Z,13.70
2017-08-01T02:42:38.575Z,12.10
2017-08-01T02:45:06.353Z,13.60
2017-08-01T02:47:33.885Z,13.03
2017-08-01T02:50:01.416Z,15.90
2017-08-01T02:52:29.101Z,12.93
2017-08-01T02:54:57.035Z,13.17
2017-08-01T02:57:24.809Z,13.70
2017-08-01T02:59:52.609Z,11.50
2017-08-01T03:02:20.225Z,12.87
2017-08-01T03:04:48.001Z,15.97
2017-08-01T03:07:15.572Z,11.30
2017-08-01T03:09:43.197Z,13.23
2017-08-01T03:12:10.823Z,9.73
2017-08-01T03:14:38.430Z,12.77
2017-08-01T03:17:06.026Z,14.00
2017-08-01T03:19:33.595Z,11.10
2017-08-01T03:22:01.393Z,12.33
2017-08-01T03:24:29.001Z,11.53
2017-08-01T03:26:56.786Z,10.43
2017-08-01T03:29:24.378Z,13.40
2017-08-01T03:31:51.989Z,11.33
2017-08-01T03:34:19.796Z,11.27
2017-08-01T03:36:47.357Z,10.00
2017-08-01T03:39:15.745Z,11.83
2017-08-01T03:41:43.332Z,12.50
2017-08-01T03:44:10.921Z,12.03
2017-08-01T03:46:38.504Z,11.97
2017-08-01T03:49:06.088Z,13.63
2017-08-01T03:51:33.631Z,8.77
2017-08-01T03:54:01.215Z,10.03
2017-08-01T03:56:28.830Z,8.70
2017-08-01T03:58:56.568Z,11.73
2017-08-01T04:01:24.170Z,8.50
2017-08-01T04:03:51.771Z,7.67
2017-08-01T04:06:19.306Z,8.30
2017-08-01T04:08:46.922Z,12.80
2017-08-01T04:11:14.497Z,8.47
2017-08-01T04:13:42.074Z,11.83
2017-08-01T04:16:09.644Z,9.80
2017-08-01T04:18:37.198Z,8.83
2017-08-01T04:21:05.181Z,8.93
2017-08-01T04:23:32.794Z,14.83
2017-08-01T04:26:00.422Z,12.37
2017-08-01T04:28:28.003Z,8.03
2017-08-01T04:30:55.680Z,7.97
2017-08-01T04:33:25.325Z,8.63
2017-08-01T04:35:55.454Z,7.80
2017-08-01T04:38:23.134Z,8.27
2017-08-01T04:40:50.805Z,7.67
2017-08-01T04:43:18.446Z,7.50
2017-08-01T04:45:46.131Z,10.93
2017-08-01T04:48:14.374Z,7.53
2017-08-01T04:50:43.603Z,7.43
2017-08-01T04:53:11.221Z,11.27
2017-08-01T04:55:38.975Z,13.60
2017-08-01T04:58:06.829Z,9.47
2017-08-01T05:00:34.409Z,9.63
2017-08-01T05:03:07.174Z,11.43
2017-08-01T05:05:34.745Z,9.53
2017-08-01T05:08:02.314Z,8.20
2017-08-01T05:10:29.876Z,12.43
2017-08-01T05:12:57.443Z,7.53
2017-08-01T05:15:25.052Z,10.47
2017-08-01T05:17:52.826Z,10.17
2017-08-01T05:20:21.151Z,6.73
2017-08-01T05:22:48.681Z,7.37
2017-08-01T05:25:16.255Z,8.40
2017-08-01T05:27:43.816Z,6.20
2017-08-01T05:30:11.500Z,7.07
2017-08-01T05:32:39.162Z,7.23
2017-08-01T05:35:06.961Z,7.47
2017-08-01T05:37:34.743Z,8.73
2017-08-01T05:40:02.287Z,6.30
2017-08-01T05:42:29.899Z,10.03
2017-08-01T05:44:57.532Z,6.63
2017-08-01T05:47:25.391Z,6.13
2017-08-01T05:49:53.137Z,5.93
2017-08-01T05:52:20.702Z,5.03
2017-08-01T05:54:48.318Z,6.57
2017-08-01T05:57:15.863Z,8.83
2017-08-01T05:59:43.448Z,7.87
2017-08-01T06:02:11.010Z,6.53
2017-08-01T06:04:38.564Z,5.63
2017-08-01T06:07:06.125Z,7.40
2017-08-01T06:09:33.738Z,8.03
2017-08-01T06:12:01.282Z,5.63
2017-08-01T06:14:28.896Z,6.60
2017-08-01T06:16:56.524Z,10.43
2017-08-01T06:19:24.085Z,7.10
2017-08-01T06:21:51.940Z,6.13
2017-08-01T06:24:19.586Z,7.77
2017-08-01T06:26:47.236Z,6.30
2017-08-01T06:29:14.819Z,5.93
2017-08-01T06:31:42.406Z,5.30
2017-08-01T06:34:09.939Z,9.20
2017-08-01T06:36:37.510Z,5.90
2017-08-01T06:39:05.143Z,5.20
2017-08-01T06:41:32.691Z,18.13
2017-08-01T06:44:00.424Z,5.33
2017-08-01T06:46:28.020Z,5.20
2017-08-01T06:48:55.776Z,9.43
2017-08-01T06:51:24.104Z,6.37
2017-08-01T06:53:51.682Z,5.90
2017-08-01T06:56:19.238Z,9.40
2017-08-01T06:58:47.055Z,6.10
2017-08-01T07:01:14.671Z,7.40
2017-08-01T07:03:42.185Z,6.37
2017-08-01T07:06:09.731Z,6.93
2017-08-01T07:08:37.305Z,6.60
2017-08-01T07:11:04.847Z,5.10
2017-08-01T07:13:32.385Z,6.90
2017-08-01T07:15:59.974Z,5.30
2017-08-01T07:18:27.516Z,12.13
2017-08-01T07:20:55.085Z,4.63
2017-08-01T07:23:22.720Z,6.37
2017-08-01T07:25:50.269Z,4.90
2017-08-01T07:28:17.866Z,5.20
2017-08-01T07:30:45.475Z,4.20
2017-08-01T07:33:13.066Z,4.17
2017-08-01T07:35:40.635Z,3.50
2017-08-01T07:38:08.202Z,4.87
2017-08-01T07:40:35.942Z,4.07
2017-08-01T07:43:03.526Z,5.90
2017-08-01T07:45:31.149Z,3.93
2017-08-01T07:47:58.709Z,3.30
2017-08-01T07:50:26.263Z,3.70
2017-08-01T07:52:53.877Z,3.70
2017-08-01T07:55:21.621Z,3.57
2017-08-01T07:57:49.174Z,4.00
2017-08-01T08:00:16.825Z,7.10
2017-08-01T08:02:44.384Z,3.43
2017-08-01T08:05:11.943Z,6.33
2017-08-01T08:07:39.540Z,4.00
2017-08-01T08:10:07.116Z,6.03
2017-08-01T08:12:34.722Z,5.50
2017-08-01T08:15:02.318Z,4.93
2017-08-01T08:17:29.875Z,3.57
2017-08-01T08:19:57.615Z,4.73
2017-08-01T08:22:25.207Z,3.60
2017-08-01T08:24:52.822Z,3.80
2017-08-01T08:27:20.631Z,5.80
2017-08-01T08:29:48.238Z,4.77
2017-08-01T08:32:15.831Z,3.20
2017-08-01T08:34:43.426Z,3.50
2017-08-01T08:37:12.175Z,3.37
2017-08-01T08:39:39.778Z,4.10
2017-08-01T08:42:07.532Z,5.00
2017-08-01T08:44:35.073Z,3.73
2017-08-01T08:47:02.645Z,3.57
2017-08-01T08:49:30.244Z,3.40
2017-08-01T08:51:57.877Z,3.37
2017-08-01T08:54:25.512Z,3.03
2017-08-01T08:56:53.099Z,3.87
2017-08-01T08:59:21.161Z,4.53
2017-08-01T09:01:48.755Z,6.60
2017-08-01T09:04:16.286Z,5.30
2017-08-01T09:06:43.836Z,4.00
2017-08-01T09:09:11.439Z,3.90
2017-08-01T09:11:39.040Z,3.83
2017-08-01T09:14:06.967Z,4.00
2017-08-01T09:16:34.553Z,5.17
2017-08-01T09:19:02.097Z,3.47
2017-08-01T09:21:29.913Z,3.83
2017-08-01T09:23:58.423Z,3.90
2017-08-01T09:26:26.050Z,5.20
2017-08-01T09:28:53.676Z,3.93
2017-08-01T09:31:21.273Z,3.10
2017-08-01T09:33:48.891Z,5.10
2017-08-01T09:36:16.652Z,3.93
2017-08-01T09:38:44.240Z,4.30
2017-08-01T09:41:11.824Z,3.20
2017-08-01T09:43:39.376Z,3.70
2017-08-01T09:46:07.884Z,4.00
2017-08-01T09:48:36.102Z,3.03
2017-08-01T09:51:04.003Z,3.13
2017-08-01T09:53:31.867Z,3.17
2017-08-01T09:56:00.344Z,3.20
2017-08-01T09:58:28.730Z,3.50
2017-08-01T10:00:56.365Z,3.90
2017-08-01T10:03:23.927Z,3.70
2017-08-01T10:05:52.463Z,3.73
2017-08-01T10:08:20.584Z,4.33
2017-08-01T10:10:48.170Z,3.87
2017-08-01T10:13:15.719Z,4.00
2017-08-01T10:15:43.366Z,3.70
2017-08-01T10:18:11.286Z,4.07
2017-08-01T10:20:38.880Z,3.87
2017-08-01T10:23:06.502Z,4.40
2017-08-01T10:25:34.179Z,10.43
2017-08-01T10:28:01.751Z,4.80
2017-08-01T10:30:29.549Z,4.70
2017-08-01T10:32:58.901Z,4.37
2017-08-01T10:35:26.528Z,3.80
2017-08-01T10:37:54.177Z,5.30
2017-08-01T10:40:21.808Z,5.53
2017-08-01T10:42:49.627Z,6.53
2017-08-01T10:45:18.170Z,3.53
2017-08-01T10:47:45.710Z,4.67
2017-08-01T10:50:13.331Z,3.27
2017-08-01T10:52:41.136Z,3.83
2017-08-01T10:55:08.719Z,4.37
2017-08-01T10:57:36.483Z,3.90
2017-08-01T11:00:11.437Z,4.30
2017-08-01T11:02:39.774Z,6.57
2017-08-01T11:05:07.423Z,4.67
2017-08-01T11:07:35.025Z,7.10
2017-08-01T11:10:02.583Z,4.53
2017-08-01T11:12:30.139Z,4.00
2017-08-01T11:14:57.713Z,5.40
2017-08-01T11:17:25.513Z,4.53
2017-08-01T11:19:53.136Z,4.43
2017-08-01T11:22:21.345Z,4.50
2017-08-01T11:24:49.878Z,6.37
2017-08-01T11:27:17.500Z,4.63
2017-08-01T11:29:46.038Z,3.90
2017-08-01T11:32:13.675Z,4.00
2017-08-01T11:34:41.429Z,8.13
2017-08-01T11:37:09.180Z,4.17
2017-08-01T11:39:36.995Z,5.00
2017-08-01T11:42:04.603Z,4.23
2017-08-01T11:44:32.373Z,8.00
2017-08-01T11:46:59.961Z,10.97
2017-08-01T11:49:27.575Z,4.47
2017-08-01T11:51:55.331Z,8.23
2017-08-01T11:54:22.942Z,4.60
2017-08-01T11:56:50.686Z,9.10
2017-08-01T11:59:18.419Z,4.20
2017-08-01T12:01:46.013Z,6.00
2017-08-01T12:04:13.530Z,6.60
2017-08-01T12:06:41.351Z,4.20
2017-08-01T12:09:08.952Z,4.00
2017-08-01T12:11:36.506Z,4.23
2017-08-01T12:14:04.077Z,3.97
2017-08-01T12:16:31.696Z,5.10
2017-08-01T12:18:59.322Z,3.93
2017-08-01T12:21:27.092Z,4.30
2017-08-01T12:23:54.698Z,6.03
2017-08-01T12:26:22.435Z,5.90
2017-08-01T12:28:50.039Z,5.60
2017-08-01T12:31:17.605Z,3.07
2017-08-01T12:33:45.227Z,5.87
2017-08-01T12:36:12.787Z,3.70
2017-08-01T12:38:40.403Z,5.03
2017-08-01T12:41:07.954Z,3.73
2017-08-01T12:43:35.519Z,6.90
2017-08-01T12:46:03.316Z,5.07
2017-08-01T12:48:31.414Z,3.70
2017-08-01T12:50:59.039Z,3.60
2017-08-01T12:53:26.650Z,6.10
2017-08-01T12:55:54.263Z,6.03
2017-08-01T12:58:22.074Z,10.00
2017-08-01T13:00:50.053Z,4.63
2017-08-01T13:03:17.800Z,4.00
2017-08-01T13:05:45.341Z,3.93
2017-08-01T13:08:13.696Z,6.30
2017-08-01T13:10:41.464Z,6.60
2017-08-01T13:13:09.025Z,4.37
2017-08-01T13:15:36.603Z,5.80
2017-08-01T13:18:04.261Z,6.50
2017-08-01T13:20:31.819Z,5.00
2017-08-01T13:22:59.399Z,3.23
2017-08-01T13:25:26.986Z,3.73
2017-08-01T13:27:54.788Z,4.07
2017-08-01T13:30:22.523Z,3.70
2017-08-01T13:32:50.840Z,4.93
2017-08-01T13:35:18.408Z,3.70
2017-08-01T13:37:45.982Z,8.27
2017-08-01T13:40:13.578Z,3.70
2017-08-01T13:42:41.472Z,3.73
2017-08-01T13:45:09.052Z,4.20
2017-08-01T13:47:36.863Z,6.60
2017-08-01T13:50:04.441Z,5.23
2017-08-01T13:52:32.020Z,4.30
2017-08-01T13:54:59.790Z,3.97
2017-08-01T13:57:27.417Z,6.23
2017-08-01T13:59:54.981Z,4.60
2017-08-01T14:02:22.554Z,3.87
2017-08-01T14:04:50.131Z,6.53
2017-08-01T14:07:17.771Z,3.70
2017-08-01T14:09:45.549Z,3.87
2017-08-01T14:12:13.171Z,3.47
2017-08-01T14:14:40.979Z,4.33
2017-08-01T14:17:09.339Z,4.67
2017-08-01T14:19:36.951Z,6.87
2017-08-01T14:22:04.823Z,4.03
2017-08-01T14:24:32.666Z,3.83
2017-08-01T14:27:00.206Z,3.30
2017-08-01T14:29:27.762Z,4.13
2017-08-01T14:31:55.342Z,3.13
2017-08-01T14:34:23.094Z,4.17
2017-08-01T14:36:50.686Z,4.47
2017-08-01T14:39:18.307Z,7.87
2017-08-01T14:41:46.129Z,6.37
2017-08-01T14:44:13.739Z,5.50
2017-08-01T14:46:41.383Z,3.10
2017-08-01T14:49:08.927Z,3.27
2017-08-01T14:51:36.503Z,3.17
2017-08-01T14:54:04.097Z,3.67
2017-08-01T14:56:31.643Z,3.90
2017-08-01T14:58:59.210Z,3.60
2017-08-01T15:01:26.806Z,3.40
2017-08-01T15:03:54.369Z,3.13
2017-08-01T15:06:21.961Z,12.50
2017-08-01T15:08:49.586Z,10.90
2017-08-01T15:11:17.118Z,3.43
2017-08-01T15:13:44.765Z,3.40
2017-08-01T15:16:12.348Z,4.80
2017-08-01T15:18:39.955Z,3.33
2017-08-01T15:21:07.572Z,7.13
2017-08-01T15:23:35.150Z,6.70
2017-08-01T15:26:02.670Z,4.60
2017-08-01T15:28:30.185Z,3.00
2017-08-01T15:30:57.783Z,3.50
2017-08-01T15:33:25.334Z,3.37
2017-08-01T15:35:52.943Z,4.80
2017-08-01T15:38:20.520Z,5.10
2017-08-01T15:40:48.071Z,4.10
2017-08-01T15:43:15.637Z,3.63
2017-08-01T15:45:43.255Z,6.30
2017-08-01T15:48:10.798Z,8.60
2017-08-01T15:50:38.525Z,4.60
2017-08-01T15:53:06.131Z,3.70
2017-08-01T15:55:33.872Z,7.93
2017-08-01T15:58:01.461Z,4.10
2017-08-01T16:00:29.050Z,3.50
2017-08-01T16:02:56.589Z,5.03
2017-08-01T16:05:24.399Z,4.73
2017-08-01T16:07:51.971Z,5.23
2017-08-01T16:10:19.584Z,4.13
2017-08-01T16:12:47.134Z,6.03
2017-08-01T16:15:14.755Z,3.37
2017-08-01T16:17:42.383Z,3.23
2017-08-01T16:20:10.131Z,4.60
2017-08-01T16:22:37.719Z,3.63
2017-08-01T16:25:05.256Z,3.40
2017-08-01T16:27:32.880Z,5.60
2017-08-01T16:30:00.468Z,4.73
2017-08-01T16:32:28.050Z,5.00
2017-08-01T16:34:55.647Z,3.27
2017-08-01T16:37:23.429Z,9.50
2017-08-01T16:39:51.013Z,15.97
2017-08-01T16:42:18.643Z,4.70
2017-08-01T16:44:46.175Z,12.20
2017-08-01T16:47:13.788Z,14.47
2017-08-01T16:49:42.750Z,9.27
2017-08-01T16:52:10.306Z,6.43
2017-08-01T16:54:37.918Z,11.40
2017-08-01T16:57:05.430Z,6.63
2017-08-01T16:59:32.975Z,5.43
2017-08-01T17:02:00.534Z,8.40
2017-08-01T17:04:28.473Z,8.17
2017-08-01T17:06:57.311Z,5.63
2017-08-01T17:09:26.128Z,5.47
2017-08-01T17:11:54.667Z,4.43
2017-08-01T17:14:23.300Z,3.30
2017-08-01T17:16:52.807Z,6.97
2017-08-01T17:19:21.425Z,3.53
2017-08-01T17:21:50.242Z,4.57
2017-08-01T17:24:19.176Z,5.67
2017-08-01T17:26:48.096Z,5.37
2017-08-01T17:29:15.967Z,4.40
2017-08-01T17:31:45.641Z,3.23
2017-08-01T17:34:14.936Z,2.53
2017-08-01T17:36:43.952Z,3.27
2017-08-01T17:39:12.965Z,4.13
2017-08-01T17:41:41.697Z,2.93
2017-08-01T17:44:11.979Z,3.53
2017-08-01T17:46:41.024Z,2.30
2017-08-01T17:49:09.807Z,4.20
2017-08-01T17:51:39.813Z,3.33
2017-08-01T17:54:08.798Z,3.70
2017-08-01T17:56:36.710Z,3.07
2017-08-01T17:59:04.316Z,3.80
2017-08-01T18:01:31.984Z,3.60
2017-08-01T18:03:59.795Z,2.80
2017-08-01T18:06:33.991Z,4.77
2017-08-01T18:09:02.795Z,4.57
2017-08-01T18:11:31.594Z,8.00
2017-08-01T18:14:01.815Z,5.93
2017-08-01T18:16:30.276Z,3.03
2017-08-01T18:18:58.051Z,5.90
2017-08-01T18:21:25.642Z,3.87
2017-08-01T18:23:53.247Z,4.57
2017-08-01T18:26:20.812Z,3.90
2017-08-01T18:28:48.597Z,3.33
2017-08-01T18:31:16.169Z,3.73
2017-08-01T18:33:43.956Z,3.20
2017-08-01T18:36:11.740Z,8.00
2017-08-01T18:38:40.059Z,5.70
2017-08-01T18:41:07.680Z,8.20
2017-08-01T18:43:35.238Z,8.97
2017-08-01T18:46:02.918Z,11.80
2017-08-01T18:48:30.497Z,37.60
2017-08-01T18:50:58.259Z,41.50
2017-08-01T18:53:25.898Z,40.47
2017-08-01T18:55:53.697Z,31.57
2017-08-01T18:58:21.489Z,22.10
2017-08-01T19:00:49.115Z,18.30
2017-08-01T19:03:16.709Z,13.03
2017-08-01T19:05:44.991Z,12.63
2017-08-01T19:08:13.397Z,23.43
2017-08-01T19:10:41.250Z,18.10
2017-08-01T19:13:08.813Z,11.10
2017-08-01T19:15:36.394Z,6.27
2017-08-01T19:18:04.204Z,6.73
2017-08-01T19:20:32.025Z,10.43
2017-08-01T19:22:59.666Z,12.40
2017-08-01T19:25:27.172Z,11.67
2017-08-01T19:27:54.678Z,16.50
2017-08-01T19:30:22.413Z,9.93
2017-08-01T19:32:49.956Z,13.73
2017-08-01T19:35:17.551Z,12.73
2017-08-01T19:37:45.175Z,11.63
2017-08-01T19:40:12.719Z,6.40
2017-08-01T19:42:40.258Z,14.67
2017-08-01T19:45:08.122Z,6.47
2017-08-01T19:47:35.671Z,9.77
2017-08-01T19:50:03.254Z,8.30
2017-08-01T19:52:30.836Z,6.10
2017-08-01T19:54:58.363Z,9.33
2017-08-01T19:57:26.109Z,7.47
2017-08-01T19:59:53.694Z,5.50
2017-08-01T20:02:21.266Z,3.70
2017-08-01T20:04:48.845Z,7.20
2017-08-01T20:07:16.398Z,6.10
2017-08-01T20:09:44.863Z,5.07
2017-08-01T20:12:12.626Z,6.03
2017-08-01T20:14:40.379Z,4.90
2017-08-01T20:17:07.942Z,4.50
2017-08-01T20:19:35.521Z,3.77
2017-08-01T20:22:04.317Z,3.87
2017-08-01T20:24:32.806Z,3.30
2017-08-01T20:27:01.930Z,4.10
2017-08-01T20:29:29.810Z,3.73
2017-08-01T20:31:57.538Z,3.47
2017-08-01T20:34:25.171Z,2.97
2017-08-01T20:36:52.751Z,4.13
2017-08-01T20:39:20.460Z,3.70
2017-08-01T20:41:48.014Z,3.83
2017-08-01T20:44:15.607Z,4.33
2017-08-01T20:46:43.383Z,3.57
2017-08-01T20:49:10.958Z,5.10
2017-08-01T20:51:38.538Z,6.80
2017-08-01T20:54:06.133Z,4.10
2017-08-01T20:56:33.751Z,6.10
2017-08-01T20:59:01.333Z,4.13
2017-08-01T21:01:28.948Z,3.87
2017-08-01T21:03:56.784Z,3.80
2017-08-01T21:06:24.387Z,6.33
2017-08-01T21:08:52.030Z,4.43
2017-08-01T21:11:19.621Z,7.50
2017-08-01T21:13:47.174Z,3.43
2017-08-01T21:16:14.779Z,8.70
2017-08-01T21:18:42.496Z,6.53
2017-08-01T21:21:10.215Z,4.00
2017-08-01T21:23:37.795Z,4.13
2017-08-01T21:26:05.431Z,3.27
2017-08-01T21:28:32.978Z,3.50
2017-08-01T21:31:00.618Z,3.93
2017-08-01T21:33:28.180Z,3.40
2017-08-01T21:35:55.990Z,5.30
2017-08-01T21:38:23.572Z,5.20
2017-08-01T21:40:51.164Z,5.73
2017-08-01T21:43:18.734Z,6.43
2017-08-01T21:45:46.365Z,4.33
2017-08-01T21:48:13.959Z,4.40
2017-08-01T21:50:41.555Z,6.10
2017-08-01T21:53:09.117Z,4.70
2017-08-01T21:55:40.578Z,9.27
2017-08-01T21:58:08.488Z,7.10
2017-08-01T22:00:36.171Z,6.77
2017-08-01T22:03:04.666Z,11.33
2017-08-01T22:05:32.277Z,8.37
2017-08-01T22:08:00.696Z,9.13
2017-08-01T22:10:28.307Z,5.63
2017-08-01T22:12:55.874Z,7.03
2017-08-01T22:15:23.493Z,16.20
2017-08-01T22:17:51.058Z,4.93
2017-08-01T22:20:18.758Z,9.37
2017-08-01T22:22:46.385Z,8.97
2017-08-01T22:25:13.995Z,4.30
2017-08-01T22:27:42.551Z,6.53
2017-08-01T22:30:10.272Z,5.27
2017-08-01T22:32:37.860Z,5.03
2017-08-01T22:35:05.420Z,4.53
2017-08-01T22:37:33.038Z,4.17
2017-08-01T22:40:00.650Z,4.23
2017-08-01T22:42:28.426Z,4.53
2017-08-01T22:44:56.057Z,10.30
2017-08-01T22:47:23.694Z,6.50
2017-08-01T22:49:51.286Z,5.30
2017-08-01T22:52:18.943Z,5.60
2017-08-01T22:54:46.591Z,4.83
2017-08-01T22:57:14.252Z,5.07
2017-08-01T22:59:41.899Z,5.67
2017-08-01T23:02:09.531Z,4.77
2017-08-01T23:04:37.167Z,5.30
2017-08-01T23:07:04.795Z,4.47
2017-08-01T23:09:32.402Z,4.50
2017-08-01T23:12:00.023Z,4.40
2017-08-01T23:14:27.939Z,4.60
2017-08-01T23:16:55.535Z,7.00
2017-08-01T23:19:23.734Z,5.03
2017-08-01T23:21:51.311Z,7.70
2017-08-01T23:24:18.929Z,7.10
2017-08-01T23:26:46.536Z,5.40
2017-08-01T23:29:14.123Z,5.30
2017-08-01T23:31:41.725Z,5.90
2017-08-01T23:34:09.318Z,4.30
2017-08-01T23:36:36.918Z,4.00
2017-08-01T23:39:04.541Z,4.00
2017-08-01T23:41:32.112Z,5.07
2017-08-01T23:43:59.770Z,4.03
2017-08-01T23:46:27.441Z,4.53
2017-08-01T23:48:55.052Z,3.87
2017-08-01T23:51:22.687Z,4.23
2017-08-01T23:53:51.148Z,5.73
2017-08-01T23:56:19.569Z,5.83
2017-08-01T23:58:47.155Z,5.93
